sensor_id;sensor_type;location;lat;lon;timestamp;P1;durP1;ratioP1;P2;durP2;ratioP2
48945;SDS011;34999;50.940;3.998;2022-10-31T00:01:25;25.77;;;13.23;;
48945;SDS011;34999;50.940;3.998;2022-10-31T00:03:57;20.83;;;12.90;;
48945;SDS011;34999;50.940;3.998;2022-10-31T00:06:26;23.83;;;13.63;;
48945;SDS011;34999;50.940;3.998;2022-10-31T00:08:55;24.30;;;13.17;;
48945;SDS011;34999;50.940;3.998;2022-10-31T00:11:26;20.20;;;13.40;;
48945;SDS011;34999;50.940;3.998;2022-10-31T00:13:56;24.03;;;13.50;;
48945;SDS011;34999;50.940;3.998;2022-10-31T00:16:26;23.77;;;12.30;;
48945;SDS011;34999;50.940;3.998;2022-10-31T00:18:56;20.23;;;12.10;;
48945;SDS011;34999;50.940;3.998;2022-10-31T00:21:26;22.00;;;13.30;;
48945;SDS011;34999;50.940;3.998;2022-10-31T00:23:55;26.57;;;13.03;;
48945;SDS011;34999;50.940;3.998;2022-10-31T00:26:26;21.73;;;12.40;;
48945;SDS011;34999;50.940;3.998;2022-10-31T00:28:54;21.93;;;12.07;;
48945;SDS011;34999;50.940;3.998;2022-10-31T00:31:23;23.87;;;13.20;;
48945;SDS011;34999;50.940;3.998;2022-10-31T00:33:51;22.27;;;13.47;;
48945;SDS011;34999;50.940;3.998;2022-10-31T00:36:19;23.03;;;13.03;;
48945;SDS011;34999;50.940;3.998;2022-10-31T00:38:47;24.20;;;13.07;;
48945;SDS011;34999;50.940;3.998;2022-10-31T00:41:16;23.13;;;13.10;;
48945;SDS011;34999;50.940;3.998;2022-10-31T00:43:46;28.87;;;13.80;;
48945;SDS011;34999;50.940;3.998;2022-10-31T00:46:15;20.43;;;12.87;;
48945;SDS011;34999;50.940;3.998;2022-10-31T00:48:44;23.47;;;13.50;;
48945;SDS011;34999;50.940;3.998;2022-10-31T00:51:12;24.00;;;13.13;;
48945;SDS011;34999;50.940;3.998;2022-10-31T00:53:40;18.97;;;12.50;;
48945;SDS011;34999;50.940;3.998;2022-10-31T00:56:09;24.23;;;14.47;;
48945;SDS011;34999;50.940;3.998;2022-10-31T00:58:37;22.23;;;14.03;;
48945;SDS011;34999;50.940;3.998;2022-10-31T01:01:07;30.47;;;15.77;;
48945;SDS011;34999;50.940;3.998;2022-10-31T01:03:35;28.77;;;16.10;;
48945;SDS011;34999;50.940;3.998;2022-10-31T01:06:06;25.53;;;14.83;;
48945;SDS011;34999;50.940;3.998;2022-10-31T01:08:36;22.23;;;13.20;;
48945;SDS011;34999;50.940;3.998;2022-10-31T01:11:06;24.47;;;14.53;;
48945;SDS011;34999;50.940;3.998;2022-10-31T01:13:36;25.20;;;13.40;;
48945;SDS011;34999;50.940;3.998;2022-10-31T01:16:04;25.47;;;14.10;;
48945;SDS011;34999;50.940;3.998;2022-10-31T01:18:37;25.73;;;14.20;;
48945;SDS011;34999;50.940;3.998;2022-10-31T01:21:06;21.10;;;13.27;;
48945;SDS011;34999;50.940;3.998;2022-10-31T01:23:36;21.57;;;13.67;;
48945;SDS011;34999;50.940;3.998;2022-10-31T01:26:06;22.23;;;12.27;;
48945;SDS011;34999;50.940;3.998;2022-10-31T01:28:37;21.90;;;13.63;;
48945;SDS011;34999;50.940;3.998;2022-10-31T01:31:08;29.33;;;13.87;;
48945;SDS011;34999;50.940;3.998;2022-10-31T01:33:37;18.30;;;11.60;;
48945;SDS011;34999;50.940;3.998;2022-10-31T01:36:12;21.83;;;11.97;;
48945;SDS011;34999;50.940;3.998;2022-10-31T01:38:44;17.07;;;11.80;;
48945;SDS011;34999;50.940;3.998;2022-10-31T01:41:13;23.83;;;12.60;;
48945;SDS011;34999;50.940;3.998;2022-10-31T01:43:44;19.77;;;12.53;;
48945;SDS011;34999;50.940;3.998;2022-10-31T01:46:15;18.17;;;11.90;;
48945;SDS011;34999;50.940;3.998;2022-10-31T01:48:47;23.10;;;13.40;;
48945;SDS011;34999;50.940;3.998;2022-10-31T01:51:16;17.63;;;11.10;;
48945;SDS011;34999;50.940;3.998;2022-10-31T01:53:47;18.37;;;10.90;;
48945;SDS011;34999;50.940;3.998;2022-10-31T01:56:18;23.73;;;11.87;;
48945;SDS011;34999;50.940;3.998;2022-10-31T01:58:47;20.17;;;12.00;;
48945;SDS011;34999;50.940;3.998;2022-10-31T02:01:17;21.90;;;12.97;;
48945;SDS011;34999;50.940;3.998;2022-10-31T02:03:46;28.37;;;13.03;;
48945;SDS011;34999;50.940;3.998;2022-10-31T02:06:19;25.80;;;13.37;;
48945;SDS011;34999;50.940;3.998;2022-10-31T02:08:54;25.17;;;13.17;;
48945;SDS011;34999;50.940;3.998;2022-10-31T02:11:24;23.73;;;14.63;;
48945;SDS011;34999;50.940;3.998;2022-10-31T02:13:53;26.20;;;14.53;;
48945;SDS011;34999;50.940;3.998;2022-10-31T02:16:23;29.67;;;14.93;;
48945;SDS011;34999;50.940;3.998;2022-10-31T02:18:51;29.10;;;14.70;;
48945;SDS011;34999;50.940;3.998;2022-10-31T02:21:22;25.60;;;14.33;;
48945;SDS011;34999;50.940;3.998;2022-10-31T02:24:12;25.47;;;14.50;;
48945;SDS011;34999;50.940;3.998;2022-10-31T02:27:08;22.97;;;13.40;;
48945;SDS011;34999;50.940;3.998;2022-10-31T02:30:07;20.00;;;13.17;;
48945;SDS011;34999;50.940;3.998;2022-10-31T02:32:48;21.10;;;12.37;;
48945;SDS011;34999;50.940;3.998;2022-10-31T02:35:32;20.70;;;11.97;;
48945;SDS011;34999;50.940;3.998;2022-10-31T02:38:11;16.73;;;11.50;;
48945;SDS011;34999;50.940;3.998;2022-10-31T02:40:48;20.47;;;11.40;;
48945;SDS011;34999;50.940;3.998;2022-10-31T02:43:26;21.97;;;11.37;;
48945;SDS011;34999;50.940;3.998;2022-10-31T02:46:01;21.30;;;12.50;;
48945;SDS011;34999;50.940;3.998;2022-10-31T02:48:37;22.77;;;13.20;;
48945;SDS011;34999;50.940;3.998;2022-10-31T02:51:07;24.83;;;13.23;;
48945;SDS011;34999;50.940;3.998;2022-10-31T02:53:37;26.47;;;13.40;;
48945;SDS011;34999;50.940;3.998;2022-10-31T02:56:07;24.40;;;13.23;;
48945;SDS011;34999;50.940;3.998;2022-10-31T02:58:40;28.37;;;14.07;;
48945;SDS011;34999;50.940;3.998;2022-10-31T03:04:18;25.00;;;13.73;;
48945;SDS011;34999;50.940;3.998;2022-10-31T03:06:54;26.70;;;13.20;;
48945;SDS011;34999;50.940;3.998;2022-10-31T03:09:31;23.47;;;13.30;;
48945;SDS011;34999;50.940;3.998;2022-10-31T03:12:04;22.57;;;12.03;;
48945;SDS011;34999;50.940;3.998;2022-10-31T03:14:38;17.83;;;10.83;;
48945;SDS011;34999;50.940;3.998;2022-10-31T03:17:12;13.77;;;10.30;;
48945;SDS011;34999;50.940;3.998;2022-10-31T03:19:47;22.47;;;11.40;;
48945;SDS011;34999;50.940;3.998;2022-10-31T03:22:20;17.80;;;10.67;;
48945;SDS011;34999;50.940;3.998;2022-10-31T03:24:51;12.57;;;9.33;;
48945;SDS011;34999;50.940;3.998;2022-10-31T03:27:23;14.87;;;9.73;;
48945;SDS011;34999;50.940;3.998;2022-10-31T03:29:54;18.20;;;9.77;;
48945;SDS011;34999;50.940;3.998;2022-10-31T03:32:26;14.20;;;9.67;;
48945;SDS011;34999;50.940;3.998;2022-10-31T03:34:59;12.70;;;9.00;;
48945;SDS011;34999;50.940;3.998;2022-10-31T03:37:30;10.87;;;8.60;;
48945;SDS011;34999;50.940;3.998;2022-10-31T03:40:02;16.40;;;10.27;;
48945;SDS011;34999;50.940;3.998;2022-10-31T03:42:34;16.37;;;10.40;;
48945;SDS011;34999;50.940;3.998;2022-10-31T03:45:08;13.17;;;9.57;;
48945;SDS011;34999;50.940;3.998;2022-10-31T03:47:39;13.90;;;9.53;;
48945;SDS011;34999;50.940;3.998;2022-10-31T03:50:12;17.27;;;9.07;;
48945;SDS011;34999;50.940;3.998;2022-10-31T03:52:43;11.10;;;8.40;;
48945;SDS011;34999;50.940;3.998;2022-10-31T03:55:17;10.33;;;8.10;;
48945;SDS011;34999;50.940;3.998;2022-10-31T03:57:48;16.97;;;8.90;;
48945;SDS011;34999;50.940;3.998;2022-10-31T04:00:24;14.87;;;9.83;;
48945;SDS011;34999;50.940;3.998;2022-10-31T04:02:53;15.00;;;9.83;;
48945;SDS011;34999;50.940;3.998;2022-10-31T04:05:28;16.93;;;8.93;;
48945;SDS011;34999;50.940;3.998;2022-10-31T04:07:58;28.33;;;7.00;;
48945;SDS011;34999;50.940;3.998;2022-10-31T04:10:29;8.50;;;7.10;;
48945;SDS011;34999;50.940;3.998;2022-10-31T04:13:01;12.17;;;8.03;;
48945;SDS011;34999;50.940;3.998;2022-10-31T04:15:33;17.63;;;9.93;;
48945;SDS011;34999;50.940;3.998;2022-10-31T04:18:04;18.97;;;11.07;;
48945;SDS011;34999;50.940;3.998;2022-10-31T04:20:35;20.47;;;11.23;;
48945;SDS011;34999;50.940;3.998;2022-10-31T04:23:05;15.47;;;9.73;;
48945;SDS011;34999;50.940;3.998;2022-10-31T04:25:44;14.07;;;9.67;;
48945;SDS011;34999;50.940;3.998;2022-10-31T04:28:12;16.97;;;9.10;;
48945;SDS011;34999;50.940;3.998;2022-10-31T04:30:40;13.27;;;9.63;;
48945;SDS011;34999;50.940;3.998;2022-10-31T04:33:08;18.73;;;9.47;;
48945;SDS011;34999;50.940;3.998;2022-10-31T04:35:38;17.53;;;9.47;;
48945;SDS011;34999;50.940;3.998;2022-10-31T04:38:07;19.07;;;10.37;;
48945;SDS011;34999;50.940;3.998;2022-10-31T04:40:35;13.70;;;9.13;;
48945;SDS011;34999;50.940;3.998;2022-10-31T04:43:04;13.27;;;9.20;;
48945;SDS011;34999;50.940;3.998;2022-10-31T04:45:32;17.30;;;10.57;;
48945;SDS011;34999;50.940;3.998;2022-10-31T04:48:01;16.63;;;10.03;;
48945;SDS011;34999;50.940;3.998;2022-10-31T04:50:29;20.40;;;11.03;;
48945;SDS011;34999;50.940;3.998;2022-10-31T04:52:59;17.03;;;10.50;;
48945;SDS011;34999;50.940;3.998;2022-10-31T04:55:27;17.40;;;10.30;;
48945;SDS011;34999;50.940;3.998;2022-10-31T04:57:55;16.67;;;11.07;;
48945;SDS011;34999;50.940;3.998;2022-10-31T05:00:24;21.43;;;11.13;;
48945;SDS011;34999;50.940;3.998;2022-10-31T05:03:08;29.10;;;12.67;;
48945;SDS011;34999;50.940;3.998;2022-10-31T05:05:37;20.90;;;12.50;;
48945;SDS011;34999;50.940;3.998;2022-10-31T05:08:08;21.87;;;13.13;;
48945;SDS011;34999;50.940;3.998;2022-10-31T05:10:37;25.17;;;13.37;;
48945;SDS011;34999;50.940;3.998;2022-10-31T05:13:05;24.53;;;14.20;;
48945;SDS011;34999;50.940;3.998;2022-10-31T05:15:36;24.77;;;13.23;;
48945;SDS011;34999;50.940;3.998;2022-10-31T05:18:04;24.37;;;13.90;;
48945;SDS011;34999;50.940;3.998;2022-10-31T05:20:32;24.43;;;14.47;;
48945;SDS011;34999;50.940;3.998;2022-10-31T05:23:01;26.40;;;14.10;;
48945;SDS011;34999;50.940;3.998;2022-10-31T05:25:30;32.40;;;16.03;;
48945;SDS011;34999;50.940;3.998;2022-10-31T05:27:58;30.60;;;15.50;;
48945;SDS011;34999;50.940;3.998;2022-10-31T05:30:28;33.87;;;16.53;;
48945;SDS011;34999;50.940;3.998;2022-10-31T05:32:57;29.57;;;15.20;;
48945;SDS011;34999;50.940;3.998;2022-10-31T05:35:27;30.00;;;17.53;;
48945;SDS011;34999;50.940;3.998;2022-10-31T05:37:56;31.33;;;17.17;;
48945;SDS011;34999;50.940;3.998;2022-10-31T05:40:25;36.83;;;17.50;;
48945;SDS011;34999;50.940;3.998;2022-10-31T05:42:56;34.70;;;17.07;;
48945;SDS011;34999;50.940;3.998;2022-10-31T05:45:26;33.47;;;15.93;;
48945;SDS011;34999;50.940;3.998;2022-10-31T05:47:55;30.33;;;15.83;;
48945;SDS011;34999;50.940;3.998;2022-10-31T05:50:25;33.13;;;17.50;;
48945;SDS011;34999;50.940;3.998;2022-10-31T05:52:55;30.03;;;16.63;;
48945;SDS011;34999;50.940;3.998;2022-10-31T05:55:23;34.87;;;16.83;;
48945;SDS011;34999;50.940;3.998;2022-10-31T05:57:52;32.67;;;17.23;;
48945;SDS011;34999;50.940;3.998;2022-10-31T06:00:22;32.07;;;16.83;;
48945;SDS011;34999;50.940;3.998;2022-10-31T06:02:57;26.80;;;15.63;;
48945;SDS011;34999;50.940;3.998;2022-10-31T06:05:28;36.10;;;17.67;;
48945;SDS011;34999;50.940;3.998;2022-10-31T06:07:57;27.10;;;15.97;;
48945;SDS011;34999;50.940;3.998;2022-10-31T06:10:26;28.10;;;16.33;;
48945;SDS011;34999;50.940;3.998;2022-10-31T06:12:55;29.33;;;15.57;;
48945;SDS011;34999;50.940;3.998;2022-10-31T06:15:25;29.23;;;15.17;;
48945;SDS011;34999;50.940;3.998;2022-10-31T06:18:00;30.53;;;16.70;;
48945;SDS011;34999;50.940;3.998;2022-10-31T06:20:30;34.13;;;16.73;;
48945;SDS011;34999;50.940;3.998;2022-10-31T06:22:59;27.63;;;15.57;;
48945;SDS011;34999;50.940;3.998;2022-10-31T06:25:28;24.67;;;15.27;;
48945;SDS011;34999;50.940;3.998;2022-10-31T06:27:56;29.40;;;15.73;;
48945;SDS011;34999;50.940;3.998;2022-10-31T06:30:26;31.37;;;16.67;;
48945;SDS011;34999;50.940;3.998;2022-10-31T06:32:54;26.57;;;15.73;;
48945;SDS011;34999;50.940;3.998;2022-10-31T06:35:29;23.43;;;15.40;;
48945;SDS011;34999;50.940;3.998;2022-10-31T06:37:57;27.00;;;15.90;;
48945;SDS011;34999;50.940;3.998;2022-10-31T06:40:26;26.10;;;15.90;;
48945;SDS011;34999;50.940;3.998;2022-10-31T06:42:57;26.43;;;14.83;;
48945;SDS011;34999;50.940;3.998;2022-10-31T06:45:27;28.77;;;15.37;;
48945;SDS011;34999;50.940;3.998;2022-10-31T06:47:56;27.47;;;15.50;;
48945;SDS011;34999;50.940;3.998;2022-10-31T06:50:45;28.03;;;15.77;;
48945;SDS011;34999;50.940;3.998;2022-10-31T06:53:13;29.00;;;16.17;;
48945;SDS011;34999;50.940;3.998;2022-10-31T06:55:42;27.30;;;16.60;;
48945;SDS011;34999;50.940;3.998;2022-10-31T06:58:10;31.23;;;16.63;;
48945;SDS011;34999;50.940;3.998;2022-10-31T07:00:40;29.97;;;16.10;;
48945;SDS011;34999;50.940;3.998;2022-10-31T07:03:09;30.70;;;17.00;;
48945;SDS011;34999;50.940;3.998;2022-10-31T07:05:39;25.13;;;15.80;;
48945;SDS011;34999;50.940;3.998;2022-10-31T07:08:09;31.67;;;17.27;;
48945;SDS011;34999;50.940;3.998;2022-10-31T07:10:40;29.23;;;16.80;;
48945;SDS011;34999;50.940;3.998;2022-10-31T07:13:10;31.23;;;16.40;;
48945;SDS011;34999;50.940;3.998;2022-10-31T07:15:41;33.17;;;17.30;;
48945;SDS011;34999;50.940;3.998;2022-10-31T07:18:11;31.87;;;17.73;;
48945;SDS011;34999;50.940;3.998;2022-10-31T07:20:39;30.07;;;17.47;;
48945;SDS011;34999;50.940;3.998;2022-10-31T07:23:08;28.10;;;16.80;;
48945;SDS011;34999;50.940;3.998;2022-10-31T07:25:38;27.47;;;16.67;;
48945;SDS011;34999;50.940;3.998;2022-10-31T07:28:07;32.63;;;17.20;;
48945;SDS011;34999;50.940;3.998;2022-10-31T07:30:36;30.47;;;16.37;;
48945;SDS011;34999;50.940;3.998;2022-10-31T07:33:06;33.47;;;16.87;;
48945;SDS011;34999;50.940;3.998;2022-10-31T07:35:34;37.63;;;17.93;;
48945;SDS011;34999;50.940;3.998;2022-10-31T07:38:08;33.70;;;17.30;;
48945;SDS011;34999;50.940;3.998;2022-10-31T07:40:38;29.43;;;16.83;;
48945;SDS011;34999;50.940;3.998;2022-10-31T07:43:07;32.80;;;17.47;;
48945;SDS011;34999;50.940;3.998;2022-10-31T07:45:40;31.37;;;16.97;;
48945;SDS011;34999;50.940;3.998;2022-10-31T07:48:10;33.10;;;18.53;;
48945;SDS011;34999;50.940;3.998;2022-10-31T07:50:38;33.80;;;17.93;;
48945;SDS011;34999;50.940;3.998;2022-10-31T07:53:07;32.47;;;17.40;;
48945;SDS011;34999;50.940;3.998;2022-10-31T07:55:36;39.03;;;18.90;;
48945;SDS011;34999;50.940;3.998;2022-10-31T07:58:05;36.13;;;18.40;;
48945;SDS011;34999;50.940;3.998;2022-10-31T08:00:35;33.67;;;17.73;;
48945;SDS011;34999;50.940;3.998;2022-10-31T08:03:05;32.60;;;17.70;;
48945;SDS011;34999;50.940;3.998;2022-10-31T08:05:35;34.53;;;17.33;;
48945;SDS011;34999;50.940;3.998;2022-10-31T08:08:04;31.43;;;18.33;;
48945;SDS011;34999;50.940;3.998;2022-10-31T08:10:33;30.90;;;18.03;;
48945;SDS011;34999;50.940;3.998;2022-10-31T08:13:04;36.80;;;17.93;;
48945;SDS011;34999;50.940;3.998;2022-10-31T08:15:34;34.50;;;18.40;;
48945;SDS011;34999;50.940;3.998;2022-10-31T08:18:05;29.80;;;17.87;;
48945;SDS011;34999;50.940;3.998;2022-10-31T08:20:35;30.47;;;18.23;;
48945;SDS011;34999;50.940;3.998;2022-10-31T08:23:04;26.00;;;16.87;;
48945;SDS011;34999;50.940;3.998;2022-10-31T08:25:34;31.90;;;16.53;;
48945;SDS011;34999;50.940;3.998;2022-10-31T08:28:04;32.47;;;17.47;;
48945;SDS011;34999;50.940;3.998;2022-10-31T08:30:34;31.47;;;15.67;;
48945;SDS011;34999;50.940;3.998;2022-10-31T08:33:04;36.00;;;16.93;;
48945;SDS011;34999;50.940;3.998;2022-10-31T08:35:37;32.07;;;16.70;;
48945;SDS011;34999;50.940;3.998;2022-10-31T08:38:05;32.83;;;17.63;;
48945;SDS011;34999;50.940;3.998;2022-10-31T08:40:34;36.00;;;17.70;;
48945;SDS011;34999;50.940;3.998;2022-10-31T08:43:04;36.47;;;17.50;;
48945;SDS011;34999;50.940;3.998;2022-10-31T08:45:34;29.27;;;16.53;;
48945;SDS011;34999;50.940;3.998;2022-10-31T08:48:03;27.77;;;15.67;;
48945;SDS011;34999;50.940;3.998;2022-10-31T08:50:33;29.97;;;16.43;;
48945;SDS011;34999;50.940;3.998;2022-10-31T08:53:04;30.03;;;15.97;;
48945;SDS011;34999;50.940;3.998;2022-10-31T08:55:34;33.47;;;16.67;;
48945;SDS011;34999;50.940;3.998;2022-10-31T08:58:03;28.13;;;16.37;;
48945;SDS011;34999;50.940;3.998;2022-10-31T09:00:32;31.77;;;16.33;;
48945;SDS011;34999;50.940;3.998;2022-10-31T09:03:02;29.03;;;16.73;;
48945;SDS011;34999;50.940;3.998;2022-10-31T09:05:32;29.47;;;16.70;;
48945;SDS011;34999;50.940;3.998;2022-10-31T09:08:02;21.83;;;14.40;;
48945;SDS011;34999;50.940;3.998;2022-10-31T09:10:40;25.63;;;15.30;;
48945;SDS011;34999;50.940;3.998;2022-10-31T09:13:09;31.73;;;15.67;;
48945;SDS011;34999;50.940;3.998;2022-10-31T09:15:39;29.73;;;15.63;;
48945;SDS011;34999;50.940;3.998;2022-10-31T09:18:10;28.73;;;16.10;;
48945;SDS011;34999;50.940;3.998;2022-10-31T09:20:40;29.50;;;15.80;;
48945;SDS011;34999;50.940;3.998;2022-10-31T09:23:11;30.83;;;16.37;;
48945;SDS011;34999;50.940;3.998;2022-10-31T09:25:41;27.53;;;16.50;;
48945;SDS011;34999;50.940;3.998;2022-10-31T09:28:16;25.70;;;15.40;;
48945;SDS011;34999;50.940;3.998;2022-10-31T09:30:46;29.47;;;15.90;;
48945;SDS011;34999;50.940;3.998;2022-10-31T09:33:15;36.97;;;17.23;;
48945;SDS011;34999;50.940;3.998;2022-10-31T09:35:44;36.70;;;17.80;;
48945;SDS011;34999;50.940;3.998;2022-10-31T09:38:16;33.00;;;17.43;;
48945;SDS011;34999;50.940;3.998;2022-10-31T09:40:47;29.27;;;16.40;;
48945;SDS011;34999;50.940;3.998;2022-10-31T09:43:22;31.93;;;16.47;;
48945;SDS011;34999;50.940;3.998;2022-10-31T09:45:59;33.20;;;18.03;;
48945;SDS011;34999;50.940;3.998;2022-10-31T09:48:37;38.83;;;19.33;;
48945;SDS011;34999;50.940;3.998;2022-10-31T09:51:15;42.03;;;19.77;;
48945;SDS011;34999;50.940;3.998;2022-10-31T09:53:50;36.43;;;19.40;;
48945;SDS011;34999;50.940;3.998;2022-10-31T09:56:22;31.13;;;19.80;;
48945;SDS011;34999;50.940;3.998;2022-10-31T09:58:53;36.57;;;17.87;;
48945;SDS011;34999;50.940;3.998;2022-10-31T10:01:36;27.10;;;15.87;;
48945;SDS011;34999;50.940;3.998;2022-10-31T10:04:17;31.30;;;16.80;;
48945;SDS011;34999;50.940;3.998;2022-10-31T10:06:57;33.53;;;17.07;;
48945;SDS011;34999;50.940;3.998;2022-10-31T10:09:31;30.70;;;17.10;;
48945;SDS011;34999;50.940;3.998;2022-10-31T10:12:02;33.17;;;16.47;;
48945;SDS011;34999;50.940;3.998;2022-10-31T10:14:40;24.23;;;15.17;;
48945;SDS011;34999;50.940;3.998;2022-10-31T10:17:22;27.87;;;16.80;;
48945;SDS011;34999;50.940;3.998;2022-10-31T10:20:18;23.53;;;14.57;;
48945;SDS011;34999;50.940;3.998;2022-10-31T10:22:57;27.13;;;16.57;;
48945;SDS011;34999;50.940;3.998;2022-10-31T10:25:52;24.40;;;15.90;;
48945;SDS011;34999;50.940;3.998;2022-10-31T10:28:27;24.37;;;15.50;;
48945;SDS011;34999;50.940;3.998;2022-10-31T10:31:06;20.53;;;13.83;;
48945;SDS011;34999;50.940;3.998;2022-10-31T10:33:37;22.47;;;14.53;;
48945;SDS011;34999;50.940;3.998;2022-10-31T10:36:08;27.90;;;15.53;;
48945;SDS011;34999;50.940;3.998;2022-10-31T10:38:45;25.27;;;15.00;;
48945;SDS011;34999;50.940;3.998;2022-10-31T10:41:22;25.63;;;15.53;;
48945;SDS011;34999;50.940;3.998;2022-10-31T10:43:58;23.30;;;14.97;;
48945;SDS011;34999;50.940;3.998;2022-10-31T10:46:29;23.50;;;13.73;;
48945;SDS011;34999;50.940;3.998;2022-10-31T10:49:26;21.63;;;13.17;;
48945;SDS011;34999;50.940;3.998;2022-10-31T10:52:06;21.53;;;13.43;;
48945;SDS011;34999;50.940;3.998;2022-10-31T10:55:03;24.03;;;13.47;;
48945;SDS011;34999;50.940;3.998;2022-10-31T10:57:44;20.07;;;13.33;;
48945;SDS011;34999;50.940;3.998;2022-10-31T11:00:21;23.00;;;13.83;;
48945;SDS011;34999;50.940;3.998;2022-10-31T11:03:06;21.10;;;12.50;;
48945;SDS011;34999;50.940;3.998;2022-10-31T11:05:36;23.13;;;13.03;;
48945;SDS011;34999;50.940;3.998;2022-10-31T11:08:07;20.87;;;14.00;;
48945;SDS011;34999;50.940;3.998;2022-10-31T11:10:35;23.97;;;13.60;;
48945;SDS011;34999;50.940;3.998;2022-10-31T11:13:14;22.90;;;14.23;;
48945;SDS011;34999;50.940;3.998;2022-10-31T11:15:51;18.70;;;13.30;;
48945;SDS011;34999;50.940;3.998;2022-10-31T11:18:30;20.90;;;13.47;;
48945;SDS011;34999;50.940;3.998;2022-10-31T11:21:02;19.67;;;12.90;;
48945;SDS011;34999;50.940;3.998;2022-10-31T11:23:32;18.60;;;13.27;;
48945;SDS011;34999;50.940;3.998;2022-10-31T11:26:01;28.93;;;13.63;;
48945;SDS011;34999;50.940;3.998;2022-10-31T11:28:32;20.80;;;13.13;;
48945;SDS011;34999;50.940;3.998;2022-10-31T11:31:05;20.30;;;13.33;;
48945;SDS011;34999;50.940;3.998;2022-10-31T11:33:37;20.87;;;13.07;;
48945;SDS011;34999;50.940;3.998;2022-10-31T11:36:14;22.77;;;13.97;;
48945;SDS011;34999;50.940;3.998;2022-10-31T11:38:45;24.23;;;13.60;;
48945;SDS011;34999;50.940;3.998;2022-10-31T11:41:14;22.97;;;13.37;;
48945;SDS011;34999;50.940;3.998;2022-10-31T11:43:50;24.50;;;14.10;;
48945;SDS011;34999;50.940;3.998;2022-10-31T11:46:22;30.30;;;15.07;;
48945;SDS011;34999;50.940;3.998;2022-10-31T11:48:58;20.67;;;13.43;;
48945;SDS011;34999;50.940;3.998;2022-10-31T11:51:27;17.80;;;12.43;;
48945;SDS011;34999;50.940;3.998;2022-10-31T11:53:58;23.13;;;13.70;;
48945;SDS011;34999;50.940;3.998;2022-10-31T11:56:37;22.53;;;13.30;;
48945;SDS011;34999;50.940;3.998;2022-10-31T11:59:14;26.33;;;13.60;;
48945;SDS011;34999;50.940;3.998;2022-10-31T12:01:49;23.40;;;13.73;;
48945;SDS011;34999;50.940;3.998;2022-10-31T12:04:19;17.13;;;12.87;;
48945;SDS011;34999;50.940;3.998;2022-10-31T12:06:56;22.40;;;13.47;;
48945;SDS011;34999;50.940;3.998;2022-10-31T12:09:26;18.37;;;13.07;;
48945;SDS011;34999;50.940;3.998;2022-10-31T12:14:53;18.73;;;11.43;;
48945;SDS011;34999;50.940;3.998;2022-10-31T12:17:29;18.77;;;12.50;;
48945;SDS011;34999;50.940;3.998;2022-10-31T12:20:07;20.33;;;12.83;;
48945;SDS011;34999;50.940;3.998;2022-10-31T12:22:46;19.23;;;12.10;;
48945;SDS011;34999;50.940;3.998;2022-10-31T12:25:25;20.20;;;12.13;;
48945;SDS011;34999;50.940;3.998;2022-10-31T12:30:59;21.90;;;12.30;;
48945;SDS011;34999;50.940;3.998;2022-10-31T12:33:49;20.83;;;13.20;;
48945;SDS011;34999;50.940;3.998;2022-10-31T12:36:27;19.87;;;11.90;;
48945;SDS011;34999;50.940;3.998;2022-10-31T12:42:00;22.23;;;12.93;;
48945;SDS011;34999;50.940;3.998;2022-10-31T12:44:40;17.60;;;12.00;;
48945;SDS011;34999;50.940;3.998;2022-10-31T12:47:32;24.10;;;12.60;;
48945;SDS011;34999;50.940;3.998;2022-10-31T12:50:13;16.33;;;11.27;;
48945;SDS011;34999;50.940;3.998;2022-10-31T12:52:54;21.03;;;12.30;;
48945;SDS011;34999;50.940;3.998;2022-10-31T12:58:20;18.77;;;11.93;;
48945;SDS011;34999;50.940;3.998;2022-10-31T13:00:53;18.53;;;11.47;;
48945;SDS011;34999;50.940;3.998;2022-10-31T13:03:35;15.90;;;11.00;;
48945;SDS011;34999;50.940;3.998;2022-10-31T13:06:09;20.00;;;12.00;;
48945;SDS011;34999;50.940;3.998;2022-10-31T13:08:41;21.93;;;11.63;;
48945;SDS011;34999;50.940;3.998;2022-10-31T13:11:15;21.27;;;11.53;;
48945;SDS011;34999;50.940;3.998;2022-10-31T13:13:50;20.97;;;12.10;;
48945;SDS011;34999;50.940;3.998;2022-10-31T13:16:24;21.77;;;11.67;;
48945;SDS011;34999;50.940;3.998;2022-10-31T13:18:58;17.67;;;10.83;;
48945;SDS011;34999;50.940;3.998;2022-10-31T13:21:33;20.17;;;11.60;;
48945;SDS011;34999;50.940;3.998;2022-10-31T13:24:08;22.13;;;10.30;;
48945;SDS011;34999;50.940;3.998;2022-10-31T13:26:42;20.20;;;11.87;;
48945;SDS011;34999;50.940;3.998;2022-10-31T13:29:17;20.73;;;11.23;;
48945;SDS011;34999;50.940;3.998;2022-10-31T13:31:55;24.80;;;12.13;;
48945;SDS011;34999;50.940;3.998;2022-10-31T13:34:26;16.70;;;12.07;;
48945;SDS011;34999;50.940;3.998;2022-10-31T13:37:02;21.30;;;12.90;;
48945;SDS011;34999;50.940;3.998;2022-10-31T13:39:46;19.07;;;12.73;;
48945;SDS011;34999;50.940;3.998;2022-10-31T13:42:25;24.07;;;12.13;;
48945;SDS011;34999;50.940;3.998;2022-10-31T13:45:11;23.33;;;10.60;;
48945;SDS011;34999;50.940;3.998;2022-10-31T13:47:41;18.10;;;11.17;;
48945;SDS011;34999;50.940;3.998;2022-10-31T13:50:21;17.77;;;10.90;;
48945;SDS011;34999;50.940;3.998;2022-10-31T13:52:51;18.27;;;10.60;;
48945;SDS011;34999;50.940;3.998;2022-10-31T13:55:34;18.00;;;10.40;;
48945;SDS011;34999;50.940;3.998;2022-10-31T13:58:04;16.50;;;10.20;;
48945;SDS011;34999;50.940;3.998;2022-10-31T14:00:57;13.53;;;8.70;;
48945;SDS011;34999;50.940;3.998;2022-10-31T14:03:40;16.60;;;8.50;;
48945;SDS011;34999;50.940;3.998;2022-10-31T14:06:36;16.83;;;7.83;;
48945;SDS011;34999;50.940;3.998;2022-10-31T14:09:16;12.90;;;6.83;;
48945;SDS011;34999;50.940;3.998;2022-10-31T14:11:48;11.40;;;6.33;;
48945;SDS011;34999;50.940;3.998;2022-10-31T14:14:17;12.47;;;6.40;;
48945;SDS011;34999;50.940;3.998;2022-10-31T14:16:52;17.33;;;7.00;;
48945;SDS011;34999;50.940;3.998;2022-10-31T14:19:23;14.27;;;7.53;;
48945;SDS011;34999;50.940;3.998;2022-10-31T14:21:53;14.83;;;6.93;;
48945;SDS011;34999;50.940;3.998;2022-10-31T14:24:32;17.90;;;7.30;;
48945;SDS011;34999;50.940;3.998;2022-10-31T14:27:03;13.60;;;7.07;;
48945;SDS011;34999;50.940;3.998;2022-10-31T14:29:47;15.70;;;7.57;;
48945;SDS011;34999;50.940;3.998;2022-10-31T14:32:19;16.67;;;7.57;;
48945;SDS011;34999;50.940;3.998;2022-10-31T14:34:53;13.67;;;7.03;;
48945;SDS011;34999;50.940;3.998;2022-10-31T14:37:35;16.17;;;7.33;;
48945;SDS011;34999;50.940;3.998;2022-10-31T14:40:24;14.63;;;7.20;;
48945;SDS011;34999;50.940;3.998;2022-10-31T14:45:59;17.30;;;7.67;;
48945;SDS011;34999;50.940;3.998;2022-10-31T14:48:35;13.90;;;6.40;;
48945;SDS011;34999;50.940;3.998;2022-10-31T14:51:20;14.10;;;6.93;;
48945;SDS011;34999;50.940;3.998;2022-10-31T14:53:52;19.53;;;7.63;;
48945;SDS011;34999;50.940;3.998;2022-10-31T14:56:23;14.70;;;7.30;;
48945;SDS011;34999;50.940;3.998;2022-10-31T14:58:54;14.50;;;7.37;;
48945;SDS011;34999;50.940;3.998;2022-10-31T15:01:26;17.40;;;7.47;;
48945;SDS011;34999;50.940;3.998;2022-10-31T15:03:57;19.90;;;7.43;;
48945;SDS011;34999;50.940;3.998;2022-10-31T15:06:51;15.63;;;7.10;;
48945;SDS011;34999;50.940;3.998;2022-10-31T15:09:28;15.60;;;7.67;;
48945;SDS011;34999;50.940;3.998;2022-10-31T15:11:58;16.80;;;7.00;;
48945;SDS011;34999;50.940;3.998;2022-10-31T15:14:28;19.97;;;7.57;;